Time;durP1;ratioP1;P1;durP2;ratioP2;P2;SDS_P1;SDS_P2;PMS_P1;PMS_P2;Temp;Humidity;BMP_temperature;BMP_pressure;BME280_temperature;BME280_humidity;BME280_pressure;Samples;Min_cycle;Max_cycle;Signal;HPM_P1;HPM_P2
2022/07/17 00:02:13;;;;;;;10.25;3.03;;;;;;;27.20;48.72;100566.72;4983975;28;20031;-82
2022/07/17 00:04:38;;;;;;;7.30;3.47;;;;;;;27.08;49.89;100563.41;4981049;28;20027;-83
2022/07/17 00:07:04;;;;;;;7.82;3.70;;;;;;;27.13;50.72;100568.88;4962337;28;20073;-83
2022/07/17 00:09:30;;;;;;;5.15;3.10;;;;;;;27.11;50.34;100572.97;4983551;28;20038;-83
2022/07/17 00:11:55;;;;;;;6.32;3.47;;;;;;;27.13;50.20;100568.88;4978726;28;20035;-85
2022/07/17 00:14:21;;;;;;;9.68;3.50;;;;;;;27.20;49.81;100572.16;4983354;28;20042;-83
2022/07/17 00:16:46;;;;;;;9.88;3.67;;;;;;;27.26;50.52;100580.31;4985660;28;20599;-83
2022/07/17 00:19:12;;;;;;;18.70;4.18;;;;;;;27.10;51.17;100584.94;4984481;28;20142;-83
2022/07/17 00:21:38;;;;;;;6.57;3.95;;;;;;;27.03;51.91;100581.63;4968100;28;20033;-83
2022/07/17 00:24:06;;;;;;;8.80;4.90;;;;;;;27.13;48.80;100581.66;4985718;28;20035;-82
2022/07/17 00:26:32;;;;;;;17.58;4.30;;;;;;;27.06;49.35;100578.38;4980725;28;20109;-82
2022/07/17 00:28:58;;;;;;;6.70;3.47;;;;;;;26.84;49.08;100578.63;4974335;28;20074;-83
2022/07/17 00:31:24;;;;;;;8.20;3.70;;;;;;;26.68;48.27;100585.06;4974776;28;20038;-82
2022/07/17 00:33:49;;;;;;;16.15;3.88;;;;;;;26.83;47.03;100587.84;4978305;28;20041;-84
2022/07/17 00:36:15;;;;;;;6.55;3.13;;;;;;;26.61;48.15;100584.50;4956307;28;20034;-84
2022/07/17 00:38:41;;;;;;;10.60;3.42;;;;;;;26.61;48.47;100589.94;4974982;28;20153;-83
2022/07/17 00:41:06;;;;;;;8.70;3.50;;;;;;;26.69;47.62;100595.66;4971615;28;20097;-82
2022/07/17 00:43:32;;;;;;;7.97;3.30;;;;;;;26.61;47.60;100584.50;4974799;28;20039;-82
2022/07/17 00:46:00;;;;;;;8.52;3.60;;;;;;;26.53;47.35;100590.41;4974368;28;20193;-84
2022/07/17 00:48:26;;;;;;;13.07;3.75;;;;;;;26.58;47.14;100595.91;4975003;28;20050;-80
2022/07/17 00:50:53;;;;;;;5.40;3.13;;;;;;;26.57;46.17;100600.50;4975073;28;20485;-85
2022/07/17 00:53:19;;;;;;;6.28;3.08;;;;;;;26.57;46.53;100600.50;4975316;28;20432;-84
2022/07/17 00:55:49;;;;;;;12.73;3.40;;;;;;;26.34;47.84;100589.25;4974995;28;20030;-82
2022/07/17 00:58:21;;;;;;;10.43;3.53;;;;;;;26.39;47.34;100608.28;4975088;28;20047;-84
2022/07/17 01:00:48;;;;;;;5.18;3.33;;;;;;;26.60;46.22;100593.72;4975285;28;20039;-85
2022/07/17 01:03:15;;;;;;;11.18;3.25;;;;;;;26.56;46.02;100598.88;4975159;28;20050;-86
2022/07/17 01:05:41;;;;;;;9.82;3.17;;;;;;;26.44;46.59;100594.75;4974772;28;20090;-85
2022/07/17 01:08:07;;;;;;;9.35;3.28;;;;;;;26.53;46.62;100598.56;4957579;28;20038;-84
2022/07/17 01:10:32;;;;;;;6.75;3.45;;;;;;;26.46;46.78;100603.44;4975103;28;20061;-84
2022/07/17 01:12:58;;;;;;;7.72;3.38;;;;;;;26.27;47.29;100599.53;4955341;28;20074;-83
2022/07/17 01:15:24;;;;;;;10.20;3.45;;;;;;;26.30;47.57;100599.81;4955792;29;20106;-82
2022/07/17 01:17:49;;;;;;;14.32;3.80;;;;;;;26.30;47.64;100612.59;4938055;29;20118;-84
2022/07/17 01:20:15;;;;;;;7.15;3.35;;;;;;;26.27;47.79;100615.84;4955277;29;20373;-84
2022/07/17 01:22:46;;;;;;;9.20;3.90;;;;;;;26.18;48.04;100613.59;4938484;29;20050;-82
2022/07/17 01:25:13;;;;;;;9.90;3.42;;;;;;;26.22;48.14;100619.34;4954904;29;20139;-82
2022/07/17 01:27:38;;;;;;;9.82;3.30;;;;;;;26.29;47.30;100614.50;4956862;29;20027;-83
2022/07/17 01:30:05;;;;;;;9.25;2.95;;;;;;;26.25;47.32;100624.25;4958645;29;20565;-82
2022/07/17 01:32:36;;;;;;;4.55;3.25;;;;;;;26.17;47.95;100622.84;4955548;29;20397;-82
2022/07/17 01:35:02;;;;;;;5.32;3.30;;;;;;;25.99;48.54;100615.09;4955323;29;20113;-81
2022/07/17 01:37:28;;;;;;;14.38;3.50;;;;;;;26.02;48.31;100632.75;4955719;29;20035;-83
2022/07/17 01:39:55;;;;;;;6.45;3.47;;;;;;;26.12;47.73;100633.63;4955341;29;20082;-81
2022/07/17 01:42:22;;;;;;;3.88;3.35;;;;;;;25.91;48.13;100634.59;4955396;29;20039;-82
2022/07/17 01:44:48;;;;;;;9.02;3.20;;;;;;;25.69;49.28;100633.84;4955398;29;20042;-81
2022/07/17 01:47:17;;;;;;;8.77;3.47;;;;;;;25.69;49.41;100636.56;4955159;29;20027;-83
2022/07/17 01:49:48;;;;;;;7.90;3.65;;;;;;;25.54;50.20;100647.31;4955546;29;20039;-81
2022/07/17 01:52:14;;;;;;;7.78;3.13;;;;;;;25.70;49.20;100640.94;4955848;29;20082;-82
2022/07/17 01:54:42;;;;;;;7.53;3.17;;;;;;;25.69;49.55;100652.84;4954603;28;20031;-83
2022/07/17 01:57:09;;;;;;;6.57;3.20;;;;;;;25.67;49.64;100644.16;4955336;29;20043;-83
2022/07/17 01:59:34;;;;;;;7.95;3.75;;;;;;;25.81;51.83;100648.09;4956282;29;20062;-83
2022/07/17 02:02:00;;;;;;;13.00;3.72;;;;;;;25.71;52.00;100648.00;4955115;29;20125;-82
2022/07/17 02:04:26;;;;;;;8.30;3.85;;;;;;;25.89;57.09;100657.63;4938030;29;20095;-81
2022/07/17 02:06:54;;;;;;;14.60;4.18;;;;;;;25.89;56.79;100653.03;4954772;29;20088;-83
2022/07/17 02:09:21;;;;;;;6.72;3.80;;;;;;;25.83;58.71;100659.50;4954811;29;20031;-82
2022/07/17 02:11:47;;;;;;;9.75;4.60;;;;;;;25.65;63.96;100662.63;4954908;29;20133;-82
2022/07/17 02:14:13;;;;;;;8.82;5.43;;;;;;;25.77;66.80;100655.13;4954618;29;20067;-81
2022/07/17 02:16:41;;;;;;;11.80;5.25;;;;;;;25.59;68.28;100652.75;4954900;29;20043;-81
2022/07/17 02:19:07;;;;;;;8.90;5.15;;;;;;;25.57;69.76;100665.78;4937510;29;20094;-83
2022/07/17 02:21:33;;;;;;;8.07;5.38;;;;;;;25.67;70.11;100665.88;4954892;29;20043;-81
2022/07/17 02:23:58;;;;;;;11.95;5.63;;;;;;;25.64;71.65;100666.41;4954935;29;20031;-81
2022/07/17 02:26:24;;;;;;;9.63;5.47;;;;;;;25.59;72.97;100669.06;4954532;29;20147;-82
2022/07/17 02:28:50;;;;;;;13.68;5.38;;;;;;;25.44;74.32;100671.59;4954576;29;20098;-83
2022/07/17 02:31:16;;;;;;;8.68;5.32;;;;;;;25.33;74.50;100681.53;4954408;29;20185;-82
2022/07/17 02:33:41;;;;;;;11.20;5.47;;;;;;;25.47;75.04;100684.66;4954744;29;20027;-82
2022/07/17 02:36:07;;;;;;;13.88;6.03;;;;;;;25.25;77.74;100683.88;4954037;29;20039;-82
2022/07/17 02:38:33;;;;;;;18.63;6.68;;;;;;;25.12;78.90;100680.47;4954602;28;20437;-84
2022/07/17 02:40:59;;;;;;;10.65;6.18;;;;;;;25.17;78.81;100683.25;4954366;29;20040;-82
2022/07/17 02:43:24;;;;;;;9.98;5.80;;;;;;;25.09;79.46;100680.19;4937354;29;20051;-84
2022/07/17 02:45:50;;;;;;;10.05;5.43;;;;;;;25.05;80.13;100701.56;4954334;29;20541;-84
2022/07/17 02:48:15;;;;;;;8.43;5.72;;;;;;;24.98;80.74;100700.94;4954212;29;20047;-82
2022/07/17 02:50:41;;;;;;;11.38;6.43;;;;;;;24.85;82.16;100701.31;4954333;29;20035;-83
2022/07/17 02:53:06;;;;;;;10.65;6.45;;;;;;;24.86;82.35;100705.63;4954213;29;20035;-82
2022/07/17 02:55:32;;;;;;;13.10;7.30;;;;;;;24.87;83.03;100710.00;4954205;29;20473;-82
2022/07/17 02:57:58;;;;;;;18.38;8.07;;;;;;;24.70;85.30;100698.34;4954416;29;20074;-82
2022/07/17 03:00:24;;;;;;;15.90;9.15;;;;;;;24.51;86.52;100700.53;4954325;29;20063;-83
2022/07/17 03:02:50;;;;;;;17.70;9.18;;;;;;;24.50;87.41;100711.59;4937370;29;20129;-81
2022/07/17 03:05:16;;;;;;;13.95;9.05;;;;;;;24.70;86.02;100704.59;4956111;28;20035;-83
2022/07/17 03:07:43;;;;;;;14.43;8.30;;;;;;;24.61;86.14;100719.66;4958978;29;20051;-83
2022/07/17 03:10:10;;;;;;;15.75;8.68;;;;;;;24.52;86.22;100706.78;4960277;29;20481;-81
2022/07/17 03:12:36;;;;;;;17.08;8.38;;;;;;;24.48;86.39;100716.47;4960582;29;20043;-83
2022/07/17 03:15:02;;;;;;;12.45;8.90;;;;;;;24.55;85.73;100714.41;4959289;29;20046;-82
2022/07/17 03:17:27;;;;;;;17.00;9.20;;;;;;;24.47;87.17;100720.22;4959257;29;20036;-82
2022/07/17 03:19:53;;;;;;;17.30;9.40;;;;;;;24.44;88.42;100716.13;4959044;29;20541;-82
2022/07/17 03:22:18;;;;;;;14.10;8.68;;;;;;;24.38;89.68;100721.72;4958086;29;20113;-81
2022/07/17 03:24:44;;;;;;;19.15;9.52;;;;;;;24.30;91.75;100716.72;4958864;29;20042;-81
2022/07/17 03:27:09;;;;;;;26.52;9.75;;;;;;;24.46;90.97;100724.03;4959126;29;20043;-82
2022/07/17 03:29:35;;;;;;;15.98;9.85;;;;;;;24.40;92.11;100730.41;4958793;29;20159;-82
2022/07/17 03:32:01;;;;;;;15.45;10.13;;;;;;;24.24;94.33;100736.66;4940471;29;20039;-83
2022/07/17 03:34:26;;;;;;;19.77;10.35;;;;;;;24.45;93.10;100733.22;4957573;29;20455;-82
2022/07/17 03:36:52;;;;;;;19.08;10.43;;;;;;;24.38;94.17;100741.53;4940212;29;20119;-83
2022/07/17 03:39:17;;;;;;;16.38;10.40;;;;;;;24.31;95.09;100742.75;4957857;29;20035;-82
2022/07/17 03:41:43;;;;;;;20.08;10.98;;;;;;;24.31;95.72;100742.75;4957553;29;20043;-82
2022/07/17 03:44:09;;;;;;;13.18;10.45;;;;;;;24.16;97.06;100751.47;4957473;29;20035;-81
2022/07/17 03:46:34;;;;;;;19.45;11.95;;;;;;;24.05;98.57;100750.44;4957375;29;20043;-82
2022/07/17 03:49:00;;;;;;;24.70;11.63;;;;;;;24.03;98.85;100752.53;4957437;29;20046;-82
2022/07/17 03:51:25;;;;;;;18.23;12.18;;;;;;;23.94;100.00;100755.91;4957167;29;20027;-81
2022/07/17 03:53:51;;;;;;;23.77;11.60;;;;;;;23.96;100.00;100757.28;4957608;29;20038;-83
2022/07/17 03:56:16;;;;;;;18.85;12.45;;;;;;;23.97;100.00;100753.53;4957150;29;20102;-81
2022/07/17 03:58:42;;;;;;;24.30;11.68;;;;;;;23.85;100.00;100766.31;4957730;29;20066;-83
2022/07/17 04:01:08;;;;;;;19.85;11.75;;;;;;;23.88;100.00;100776.66;4957047;28;20035;-82
2022/07/17 04:03:33;;;;;;;17.88;12.65;;;;;;;23.78;100.00;100770.22;4939387;29;20544;-84
2022/07/17 04:05:59;;;;;;;23.50;12.63;;;;;;;23.84;100.00;100770.09;4956571;29;20046;-81
2022/07/17 04:08:24;;;;;;;25.92;12.63;;;;;;;23.98;100.00;100770.59;4957907;29;20027;-83
2022/07/17 04:10:50;;;;;;;17.90;12.95;;;;;;;23.91;100.00;100775.34;4958559;29;20039;-83
2022/07/17 04:13:16;;;;;;;19.20;12.25;;;;;;;23.93;100.00;100771.31;4967590;29;20035;-83
2022/07/17 04:15:59;;;;;;;25.30;13.30;;;;;;;23.90;100.00;100779.94;4968090;29;20116;-82
2022/07/17 04:18:30;;;;;;;20.17;11.75;;;;;;;23.95;100.00;100776.50;4963720;28;20042;-85
2022/07/17 04:21:01;;;;;;;17.42;12.02;;;;;;;23.95;100.00;100782.75;4957665;29;20031;-84
2022/07/17 04:23:27;;;;;;;17.20;12.70;;;;;;;23.92;100.00;100788.66;4957133;29;20035;-83
2022/07/17 04:25:54;;;;;;;25.05;13.10;;;;;;;23.84;100.00;100796.31;4957041;29;20062;-82
2022/07/17 04:28:20;;;;;;;18.88;12.90;;;;;;;23.79;100.00;100805.19;4956677;29;20469;-82
2022/07/17 04:30:45;;;;;;;18.42;11.38;;;;;;;23.89;100.00;100804.56;4956791;29;20066;-81
2022/07/17 04:33:15;;;;;;;18.77;12.45;;;;;;;23.81;100.00;100803.06;4956539;29;20051;-85
2022/07/17 04:35:41;;;;;;;19.17;11.82;;;;;;;24.03;98.42;100805.88;4956558;29;20046;-82
2022/07/17 04:38:07;;;;;;;16.50;11.32;;;;;;;23.86;99.43;100811.28;4956665;29;20043;-82
2022/07/17 04:40:37;;;;;;;22.15;11.60;;;;;;;23.85;98.96;100809.63;4956774;29;20043;-82
2022/07/17 04:43:03;;;;;;;22.08;12.05;;;;;;;23.75;99.37;100804.03;4956616;29;20090;-80
2022/07/17 04:45:29;;;;;;;17.75;11.73;;;;;;;23.74;98.88;100812.38;4956253;29;20114;-81
2022/07/17 04:47:55;;;;;;;13.45;10.73;;;;;;;23.97;94.54;100823.94;4956591;29;20587;-81
2022/07/17 04:50:21;;;;;;;15.10;10.48;;;;;;;23.97;93.36;100823.09;4956653;29;20035;-81
2022/07/17 04:52:47;;;;;;;21.45;11.23;;;;;;;23.98;92.39;100820.16;4956150;29;20038;-80
2022/07/17 04:55:12;;;;;;;22.55;10.82;;;;;;;23.85;93.34;100815.03;4956560;29;20035;-81
2022/07/17 04:57:38;;;;;;;18.17;10.10;;;;;;;23.79;92.43;100816.03;4923003;29;20034;-82
2022/07/17 05:00:05;;;;;;;20.17;9.82;;;;;;;23.93;91.40;100817.34;4956163;29;20044;-81
2022/07/17 05:02:31;;;;;;;19.30;9.82;;;;;;;24.02;90.14;100821.31;4956210;29;20094;-81
2022/07/17 05:04:56;;;;;;;21.58;10.82;;;;;;;23.83;90.98;100821.78;4956111;29;20035;-83
2022/07/17 05:07:23;;;;;;;17.65;9.68;;;;;;;23.86;91.43;100824.00;4956060;29;20438;-81
2022/07/17 05:09:49;;;;;;;21.85;10.95;;;;;;;23.89;92.08;100826.22;4962183;29;20041;-82
2022/07/17 05:12:14;;;;;;;16.42;10.70;;;;;;;23.97;91.90;100840.16;4944843;29;20066;-83
2022/07/17 05:14:40;;;;;;;19.55;10.32;;;;;;;24.02;92.28;100837.56;4956144;29;20413;-81
2022/07/17 05:17:05;;;;;;;21.77;10.73;;;;;;;24.11;90.81;100841.53;4955878;29;20035;-82
2022/07/17 05:19:31;;;;;;;23.90;9.60;;;;;;;24.09;89.89;100838.25;4955820;29;20099;-82
2022/07/17 05:21:56;;;;;;;14.75;9.07;;;;;;;24.24;88.64;100845.03;4955923;29;20046;-81
2022/07/17 05:24:22;;;;;;;14.18;8.07;;;;;;;24.32;87.80;100847.34;4955590;29;20119;-81
2022/07/17 05:26:47;;;;;;;15.13;7.68;;;;;;;24.46;85.97;100848.69;4955589;29;20046;-82
2022/07/17 05:29:13;;;;;;;16.27;7.15;;;;;;;24.57;84.08;100855.91;4954877;28;20043;-83
2022/07/17 05:31:39;;;;;;;18.13;7.00;;;;;;;24.82;81.54;100859.06;4955448;29;20035;-83
2022/07/17 05:34:05;;;;;;;20.80;7.30;;;;;;;24.89;81.10;100865.13;4955562;29;20093;-82
2022/07/17 05:36:30;;;;;;;14.35;6.50;;;;;;;24.90;81.18;100864.06;4955429;29;20046;-83
2022/07/17 05:38:56;;;;;;;10.55;6.90;;;;;;;25.02;80.27;100864.78;4955523;29;20071;-80
2022/07/17 05:41:21;;;;;;;17.10;6.65;;;;;;;24.96;81.27;100870.38;4955383;29;20066;-83
2022/07/17 05:43:47;;;;;;;11.40;7.13;;;;;;;24.87;81.05;100869.97;4955489;29;20532;-83
2022/07/17 05:46:12;;;;;;;14.60;7.07;;;;;;;25.25;79.81;100869.19;4955236;29;20039;-83
2022/07/17 05:48:38;;;;;;;15.13;6.88;;;;;;;25.04;81.17;100878.91;4955289;29;20071;-81
2022/07/17 05:51:03;;;;;;;12.68;7.45;;;;;;;25.17;81.75;100873.16;4955353;29;20094;-82
2022/07/17 05:53:29;;;;;;;16.85;7.95;;;;;;;25.35;81.00;100871.22;4955322;29;20640;-83
2022/07/17 05:55:55;;;;;;;19.13;7.47;;;;;;;25.56;79.83;100875.88;4955336;29;20128;-83
2022/07/17 05:58:21;;;;;;;14.73;7.03;;;;;;;25.65;79.35;100883.31;4955293;29;20441;-83
2022/07/17 06:00:48;;;;;;;19.02;8.00;;;;;;;25.45;81.76;100887.66;4955450;29;20467;-82
2022/07/17 06:03:14;;;;;;;21.65;8.43;;;;;;;25.58;81.59;100890.03;4955428;29;20043;-83
2022/07/17 06:05:40;;;;;;;27.05;10.00;;;;;;;25.55;84.74;100894.03;4954941;29;20035;-84
2022/07/17 06:08:06;;;;;;;16.88;9.75;;;;;;;25.30;86.42;100890.13;4954905;29;20061;-84
2022/07/17 06:10:33;;;;;;;17.73;10.32;;;;;;;25.51;87.39;100901.06;4955328;29;20438;-83
2022/07/17 06:12:58;;;;;;;18.15;10.68;;;;;;;25.60;87.38;100901.44;4954838;29;20342;-84
2022/07/17 06:15:24;;;;;;;17.80;9.48;;;;;;;25.73;85.48;100909.22;4954768;29;20036;-83
2022/07/17 06:17:50;;;;;;;17.10;10.90;;;;;;;25.73;87.04;100898.34;4954962;29;20065;-82
2022/07/17 06:20:16;;;;;;;22.65;10.85;;;;;;;26.22;84.09;100906.56;4954698;29;20525;-84
2022/07/17 06:22:42;;;;;;;22.20;10.15;;;;;;;26.36;83.38;100905.06;4954825;29;20417;-84
2022/07/17 06:25:09;;;;;;;22.95;10.90;;;;;;;26.61;83.63;100916.19;4955034;29;20192;-84
2022/07/17 06:27:35;;;;;;;19.23;11.20;;;;;;;26.74;82.10;100915.75;4954557;29;20047;-85
2022/07/17 06:30:00;;;;;;;16.38;11.30;;;;;;;26.50;84.03;100933.47;4954789;29;20047;-83
2022/07/17 06:32:26;;;;;;;18.90;12.25;;;;;;;26.42;86.26;100923.06;4954791;29;20081;-83
2022/07/17 06:34:52;;;;;;;22.25;11.55;;;;;;;26.37;87.06;100914.88;4954524;29;20071;-82
2022/07/17 06:37:18;;;;;;;25.88;12.25;;;;;;;26.63;85.59;100908.59;4954990;29;20031;-83
2022/07/17 06:39:43;;;;;;;23.67;12.93;;;;;;;27.51;80.40;100912.56;4954623;28;20552;-85
2022/07/17 06:42:10;;;;;;;22.95;11.35;;;;;;;27.91;76.99;100911.91;4954721;29;20031;-84
2022/07/17 06:44:36;;;;;;;26.05;10.98;;;;;;;27.78;77.60;100918.66;4954784;29;20170;-85
2022/07/17 06:47:02;;;;;;;17.95;9.55;;;;;;;27.77;74.97;100917.03;4954670;29;20448;-83
2022/07/17 06:49:27;;;;;;;15.10;9.20;;;;;;;28.16;73.58;100923.75;4954893;29;20122;-85
2022/07/17 06:51:53;;;;;;;13.50;7.60;;;;;;;28.28;71.66;100936.31;4954789;29;20042;-84
2022/07/17 06:54:23;;;;;;;12.38;6.50;;;;;;;28.07;70.70;100916.38;4954679;29;20031;-83
2022/07/17 06:56:49;;;;;;;12.40;6.68;;;;;;;28.23;70.92;100929.78;4937282;29;20374;-85
2022/07/17 06:59:14;;;;;;;11.32;5.47;;;;;;;28.52;68.60;100921.91;4954659;29;20043;-84
2022/07/17 07:01:40;;;;;;;9.15;5.05;;;;;;;28.92;65.86;100929.31;4954602;29;20047;-83
2022/07/17 07:04:05;;;;;;;11.52;5.07;;;;;;;28.46;67.46;100927.63;4954602;29;20036;-84
2022/07/17 07:06:31;;;;;;;11.32;4.30;;;;;;;29.01;63.63;100924.94;4954483;29;20047;-84
2022/07/17 07:08:57;;;;;;;12.70;4.40;;;;;;;29.17;62.33;100923.00;4954474;29;20035;-83
2022/07/17 07:11:23;;;;;;;11.75;4.68;;;;;;;29.38;61.37;100923.84;4954272;29;20042;-85
2022/07/17 07:13:49;;;;;;;8.60;4.50;;;;;;;29.01;62.55;100935.88;4954622;29;20036;-84
2022/07/17 07:16:14;;;;;;;10.20;4.90;;;;;;;29.28;61.99;100937.50;4954516;29;20386;-83
2022/07/17 07:18:40;;;;;;;8.82;4.75;;;;;;;29.55;60.85;100941.56;4954455;29;20046;-84
2022/07/17 07:21:05;;;;;;;11.98;4.80;;;;;;;29.81;60.25;100934.06;4954443;29;20477;-82
2022/07/17 07:23:34;;;;;;;12.48;5.00;;;;;;;29.68;60.56;100940.13;4954348;29;20047;-84
2022/07/17 07:25:59;;;;;;;11.85;4.82;;;;;;;29.82;60.49;100929.44;4954314;29;20036;-87
2022/07/17 07:28:25;;;;;;;12.48;4.95;;;;;;;29.61;62.00;100934.16;4937378;29;20449;-84
2022/07/17 07:30:50;;;;;;;12.40;5.35;;;;;;;29.41;62.49;100935.03;4954269;29;20091;-84
2022/07/17 07:33:16;;;;;;;15.57;5.50;;;;;;;29.73;61.61;100940.94;4954105;28;20114;-84
2022/07/17 07:35:42;;;;;;;11.68;5.60;;;;;;;29.71;61.78;100945.03;4954106;29;20039;-85
2022/07/17 07:38:08;;;;;;;14.60;5.43;;;;;;;29.83;61.12;100934.63;4954462;29;20436;-85
2022/07/17 07:40:34;;;;;;;16.80;5.50;;;;;;;30.09;60.31;100941.66;4954148;29;20059;-86
2022/07/17 07:42:59;;;;;;;11.88;5.05;;;;;;;30.23;60.04;100955.50;4937215;29;20047;-85
2022/07/17 07:45:25;;;;;;;10.52;5.35;;;;;;;30.38;58.70;100943.66;4937011;29;20054;-83
2022/07/17 07:47:51;;;;;;;9.10;4.97;;;;;;;30.47;58.17;100950.19;4937031;29;20075;-84
2022/07/17 07:50:17;;;;;;;15.68;4.95;;;;;;;30.39;58.50;100948.03;4936967;29;20039;-84
2022/07/17 07:52:44;;;;;;;14.70;5.32;;;;;;;30.02;59.69;100946.59;4955984;28;20035;-83
2022/07/17 07:55:11;;;;;;;12.00;4.93;;;;;;;31.02;55.88;100947.09;4957456;29;20043;-86
2022/07/17 07:57:37;;;;;;;11.98;4.82;;;;;;;30.80;56.15;100963.09;4957660;29;20031;-83
2022/07/17 08:00:05;;;;;;;8.93;5.47;;;;;;;30.17;58.46;100945.69;4957659;29;20046;-85
2022/07/17 08:02:38;;;;;;;8.13;5.45;;;;;;;30.67;56.05;100953.63;4957597;29;20039;-85
2022/07/17 08:05:04;;;;;;;10.48;4.80;;;;;;;30.84;54.75;100953.22;4940011;29;20085;-83
2022/07/17 08:07:30;;;;;;;10.13;5.10;;;;;;;30.22;57.57;100951.97;4966234;28;20041;-86
2022/07/17 08:09:58;;;;;;;11.77;4.95;;;;;;;30.92;55.93;100954.53;4994700;28;20432;-86
2022/07/17 08:12:24;;;;;;;11.68;5.13;;;;;;;31.18;54.36;100970.47;4995958;28;20101;-85
2022/07/17 08:14:50;;;;;;;16.08;4.88;;;;;;;31.65;52.66;100963.47;4996053;28;20125;-84
2022/07/17 08:17:19;;;;;;;14.05;4.93;;;;;;;31.84;51.90;100964.34;4995940;28;20034;-85
2022/07/17 08:19:45;;;;;;;13.27;5.40;;;;;;;31.77;51.72;100966.59;4996046;28;20043;-84
2022/07/17 08:22:10;;;;;;;11.80;5.50;;;;;;;31.81;51.64;100962.19;4996005;28;20050;-83
2022/07/17 08:24:36;;;;;;;11.57;5.38;;;;;;;31.41;52.65;100959.84;5000168;28;20034;-85
2022/07/17 08:27:01;;;;;;;8.93;5.75;;;;;;;31.21;53.10;100969.91;4979847;28;20050;-83
2022/07/17 08:29:27;;;;;;;9.98;5.55;;;;;;;31.03;54.03;100967.88;4998164;28;20038;-82
2022/07/17 08:31:53;;;;;;;8.25;5.50;;;;;;;31.18;53.73;100975.97;4992284;28;20070;-86
2022/07/17 08:34:19;;;;;;;9.32;5.05;;;;;;;31.71;51.70;100970.50;4984627;28;20066;-83
2022/07/17 08:36:44;;;;;;;12.57;4.80;;;;;;;31.95;51.02;100976.00;4985952;28;20027;-84
2022/07/17 08:39:10;;;;;;;13.70;5.85;;;;;;;32.17;49.53;100966.13;4987265;28;20502;-86
2022/07/17 08:41:38;;;;;;;8.93;4.88;;;;;;;31.87;50.74;100974.72;4966418;28;20114;-84
2022/07/17 08:44:05;;;;;;;12.40;5.53;;;;;;;31.89;51.00;100969.75;4970714;28;20076;-86
2022/07/17 08:46:35;;;;;;;9.93;5.20;;;;;;;32.36;49.38;100965.31;4976128;28;20037;-83
2022/07/17 08:49:02;;;;;;;13.00;5.47;;;;;;;32.13;49.34;100976.06;4975940;28;20038;-84
2022/07/17 08:51:28;;;;;;;7.85;5.13;;;;;;;31.66;50.89;100971.38;4975530;28;20126;-81
2022/07/17 08:53:55;;;;;;;6.32;4.80;;;;;;;31.96;49.98;100974.88;4975775;28;20031;-82
2022/07/17 08:56:28;;;;;;;11.52;5.40;;;;;;;31.78;50.50;100976.47;4959260;28;20046;-80
2022/07/17 08:59:03;;;;;;;10.10;6.65;;;;;;;31.45;51.51;100977.34;4976083;28;20047;-82
2022/07/17 09:01:28;;;;;;;8.32;4.97;;;;;;;31.25;52.52;100964.66;4954931;28;20035;-82
2022/07/17 09:04:09;;;;;;;9.05;4.93;;;;;;;31.42;52.16;100980.66;4982083;28;20037;-83
2022/07/17 09:06:36;;;;;;;13.02;4.63;;;;;;;31.69;51.02;100981.75;4972657;28;20114;-83
2022/07/17 09:09:23;;;;;;;12.07;5.28;;;;;;;31.53;51.25;100987.69;4957431;28;20031;-83
2022/07/17 09:11:58;;;;;;;8.18;4.32;;;;;;;31.37;51.75;100983.44;4992794;28;20067;-83
2022/07/17 09:14:56;;;;;;;9.63;4.88;;;;;;;31.40;51.68;100971.91;4989626;28;20039;-81
2022/07/17 09:18:17;;;;;;;7.75;4.45;;;;;;;32.02;49.86;100974.50;4949392;29;20024;-83
2022/07/17 09:20:46;;;;;;;16.77;4.65;;;;;;;32.08;48.86;100987.09;4940558;29;20115;-84
2022/07/17 09:23:24;;;;;;;12.88;4.72;;;;;;;31.66;50.40;100987.81;4916541;29;20050;-83
2022/07/17 09:25:55;;;;;;;10.52;4.30;;;;;;;31.59;49.56;100989.25;4933097;29;20514;-82
2022/07/17 09:28:22;;;;;;;9.20;3.78;;;;;;;31.90;48.32;100989.75;4958959;28;20050;-83
2022/07/17 09:30:55;;;;;;;15.80;4.30;;;;;;;32.04;48.32;100993.44;4985225;28;20449;-81
2022/07/17 09:33:34;;;;;;;11.77;4.13;;;;;;;31.60;49.22;100993.66;4977586;28;20031;-88
2022/07/17 09:36:21;;;;;;;8.90;4.70;;;;;;;31.53;49.22;100993.16;4997471;28;20035;-87
2022/07/17 09:39:35;;;;;;;12.88;4.32;;;;;;;31.84;48.66;100988.19;4993742;28;20049;-89
2022/07/17 09:42:55;;;;;;;12.05;4.75;;;;;;;31.67;49.23;100985.91;4997864;28;20101;-88
2022/07/17 09:45:46;;;;;;;9.90;4.20;;;;;;;31.58;48.42;100976.69;4997051;28;20067;-86
2022/07/17 09:49:22;;;;;;;12.02;4.15;;;;;;;31.67;47.68;100972.19;4964235;28;20050;-89
2022/07/17 09:52:12;;;;;;;9.23;3.53;;;;;;;31.85;46.70;100992.56;4927144;28;20139;-88
2022/07/17 09:55:06;;;;;;;9.27;3.72;;;;;;;31.38;46.94;100990.56;4939472;28;20048;-90
2022/07/17 09:57:54;;;;;;;10.75;3.53;;;;;;;31.46;46.87;100977.03;4906957;29;20135;-87
2022/07/17 10:09:13;;;;;;;10.38;3.50;;;;;;;32.30;45.20;100975.56;2804583;22;19940;-83
2022/07/17 10:12:20;;;;;;;9.85;3.30;;;;;;;32.35;43.54;100967.25;4963569;28;20046;-85
2022/07/17 10:15:08;;;;;;;8.00;2.90;;;;;;;32.82;43.52;100970.94;4981193;28;20066;-84
2022/07/17 10:18:10;;;;;;;5.68;3.58;;;;;;;32.64;44.63;100975.38;4976509;28;20039;-84
2022/07/17 10:20:51;;;;;;;11.38;3.50;;;;;;;32.83;44.75;100978.91;4976375;28;20070;-82
2022/07/17 10:23:26;;;;;;;7.82;3.63;;;;;;;32.55;46.58;100968.88;4991144;28;20030;-83
2022/07/17 10:26:17;;;;;;;19.42;3.40;;;;;;;32.76;45.52;100967.47;4985145;28;20140;-84
2022/07/17 10:28:56;;;;;;;9.02;3.25;;;;;;;32.31;45.88;100971.72;4992360;28;20033;-81
2022/07/17 10:31:31;;;;;;;4.88;2.97;;;;;;;32.38;45.36;100976.81;4992974;28;20038;-85
2022/07/17 10:34:09;;;;;;;17.27;3.88;;;;;;;32.37;45.72;100970.53;4993563;28;20050;-82
2022/07/17 10:37:44;;;;;;;9.07;3.80;;;;;;;32.41;45.42;100971.56;4993808;28;20039;-82
2022/07/17 10:40:42;;;;;;;16.95;8.48;;;;;;;32.30;46.79;100974.72;4993528;28;20046;-83
2022/07/17 10:43:20;;;;;;;6.88;3.78;;;;;;;32.49;46.96;100972.81;4992469;28;20058;-82
2022/07/17 10:45:52;;;;;;;6.43;3.38;;;;;;;32.64;46.15;100961.66;4991745;28;20046;-82
2022/07/17 10:48:24;;;;;;;6.55;3.25;;;;;;;32.97;45.04;100974.28;4994002;28;20035;-83
2022/07/17 10:51:24;;;;;;;11.68;4.05;;;;;;;33.16;44.88;100969.59;4997326;28;20041;-86
2022/07/17 10:54:13;;;;;;;8.35;3.40;;;;;;;33.20;44.54;100978.88;4988092;28;20043;-81
2022/07/17 10:57:12;;;;;;;8.50;3.90;;;;;;;32.90;46.49;100964.78;4977050;28;20027;-83
2022/07/17 10:59:45;;;;;;;8.30;3.55;;;;;;;32.80;47.11;100968.53;4997652;28;20039;-82
2022/07/17 11:02:45;;;;;;;7.05;3.65;;;;;;;33.05;45.89;100965.34;4993229;28;20062;-82
2022/07/17 11:05:35;;;;;;;5.68;3.40;;;;;;;33.04;45.40;100968.41;4922807;29;20060;-84
2022/07/17 11:08:57;;;;;;;7.97;3.60;;;;;;;33.42;43.90;100958.13;4937154;29;20115;-86
2022/07/17 11:12:31;;;;;;;10.93;3.47;;;;;;;33.47;42.68;100966.28;4879031;29;20058;-84
2022/07/17 11:15:30;;;;;;;7.78;3.75;;;;;;;32.99;44.50;100950.06;4875789;29;20034;-81
2022/07/17 11:37:50;;;;;;;11.60;3.15;;;;;;;33.14;45.26;100930.63;2614432;23;20055;-87
2022/07/17 11:40:44;;;;;;;11.05;3.90;;;;;;;33.01;45.14;100920.38;4960478;28;20086;-87
2022/07/17 11:55:46;;;;;;;9.43;3.53;;;;;;;32.65;45.78;100911.91;4961467;28;19907;-86
2022/07/17 11:59:06;;;;;;;9.48;3.25;;;;;;;32.37;46.00;100917.56;4961751;29;20036;-87
2022/07/17 12:02:13;;;;;;;8.00;3.25;;;;;;;32.19;46.21;100909.03;4949065;28;20044;-84
2022/07/17 12:05:00;;;;;;;6.53;3.17;;;;;;;32.34;45.28;100909.94;4948592;28;20058;-86
2022/07/17 12:36:52;;;;;;;12.13;3.67;;;;;;;32.34;44.19;100894.28;5011735;28;20040;-87
2022/07/17 12:39:23;;;;;;;9.90;3.00;;;;;;;32.19;44.11;100878.88;4988480;28;20030;-88
2022/07/17 12:49:56;;;;;;;8.20;3.58;;;;;;;32.47;41.87;100873.50;4982044;28;20054;-86
2022/07/17 12:53:33;;;;;;;9.25;3.20;;;;;;;32.43;42.00;100877.97;4975920;28;20055;-88